createdAt,value
2023-07-02T00:06:41.395Z,4.57
2023-07-02T00:13:24.121Z,6.38
2023-07-02T00:20:18.697Z,5.40
2023-07-02T00:27:01.327Z,4.80
2023-07-02T00:33:45.118Z,4.10
2023-07-02T00:40:28.744Z,5.55
2023-07-02T00:47:12.555Z,3.92
2023-07-02T00:53:59.330Z,3.97
2023-07-02T01:00:43.742Z,6.15
2023-07-02T01:07:26.912Z,5.38
2023-07-02T01:14:13.536Z,3.60
2023-07-02T01:20:56.199Z,4.03
2023-07-02T01:27:38.914Z,3.15
2023-07-02T01:34:23.373Z,3.25
2023-07-02T01:41:06.096Z,5.18
2023-07-02T01:47:48.724Z,2.92
2023-07-02T01:54:33.061Z,4.38
2023-07-02T02:01:15.673Z,3.85
2023-07-02T02:07:58.292Z,4.85
2023-07-02T02:14:40.903Z,5.07
2023-07-02T02:21:23.665Z,4.55
2023-07-02T02:28:06.220Z,3.67
2023-07-02T02:34:49.339Z,3.38
2023-07-02T02:41:32.472Z,5.63
2023-07-02T02:48:16.179Z,3.22
2023-07-02T02:54:59.490Z,2.70
2023-07-02T03:01:42.198Z,3.80
2023-07-02T03:08:24.820Z,5.85
2023-07-02T03:15:08.103Z,3.40
2023-07-02T03:21:50.901Z,5.75
2023-07-02T03:28:35.975Z,4.57
2023-07-02T03:35:18.800Z,5.15
2023-07-02T03:42:01.361Z,4.47
2023-07-02T03:48:43.969Z,7.18
2023-07-02T03:55:26.545Z,4.80
2023-07-02T04:02:09.223Z,7.32
2023-07-02T04:08:52.216Z,7.03
2023-07-02T04:15:35.301Z,5.10
2023-07-02T04:22:19.284Z,6.88
2023-07-02T04:29:01.905Z,10.65
2023-07-02T04:35:44.620Z,7.93
2023-07-02T04:42:32.842Z,8.40
2023-07-02T04:49:15.981Z,5.07
2023-07-02T04:55:59.231Z,8.98
2023-07-02T05:02:42.086Z,5.90
2023-07-02T05:09:24.756Z,8.27
2023-07-02T05:16:07.443Z,6.97
2023-07-02T05:22:50.188Z,6.93
2023-07-02T05:29:32.895Z,7.40
2023-07-02T05:36:15.928Z,6.20
2023-07-02T05:42:58.496Z,6.03
2023-07-02T05:49:43.743Z,5.50
2023-07-02T05:56:26.291Z,7.20
2023-07-02T06:03:09.115Z,5.50
2023-07-02T06:09:51.956Z,7.10
2023-07-02T06:16:34.795Z,7.22
2023-07-02T06:23:17.506Z,9.55
2023-07-02T06:30:00.095Z,7.55
2023-07-02T06:36:43.413Z,8.90
2023-07-02T06:43:25.982Z,11.80
2023-07-02T06:50:08.914Z,15.73
2023-07-02T06:56:51.676Z,13.88
2023-07-02T07:03:34.316Z,14.85
2023-07-02T07:10:16.976Z,14.57
2023-07-02T07:16:59.588Z,11.75
2023-07-02T07:23:42.198Z,12.38
2023-07-02T07:30:24.860Z,14.70
2023-07-02T07:37:07.548Z,15.70
2023-07-02T07:43:51.198Z,16.58
2023-07-02T07:50:34.027Z,18.60
2023-07-02T07:57:18.067Z,16.63
2023-07-02T08:04:00.699Z,17.65
2023-07-02T08:10:43.482Z,17.30
2023-07-02T08:17:26.164Z,21.73
2023-07-02T08:24:08.970Z,18.05
2023-07-02T08:30:51.671Z,18.70
2023-07-02T08:37:34.403Z,18.17
2023-07-02T08:44:21.489Z,15.73
2023-07-02T08:51:04.466Z,14.98
2023-07-02T08:57:51.166Z,15.73
2023-07-02T09:04:33.847Z,15.30
2023-07-02T09:11:21.110Z,14.90
2023-07-02T09:18:03.883Z,17.83
2023-07-02T09:24:58.957Z,15.85
2023-07-02T09:31:59.640Z,16.50
2023-07-02T09:38:46.711Z,16.48
2023-07-02T09:45:29.341Z,17.92
2023-07-02T09:52:13.053Z,15.38
2023-07-02T09:58:55.737Z,18.58
2023-07-02T10:05:38.838Z,15.13
2023-07-02T10:12:31.070Z,15.18
2023-07-02T10:19:14.472Z,17.95
2023-07-02T10:25:57.078Z,21.98
2023-07-02T10:32:40.059Z,18.20
2023-07-02T10:39:22.713Z,15.85
2023-07-02T10:46:06.228Z,30.73
2023-07-02T10:52:51.674Z,16.15
2023-07-02T10:59:34.722Z,21.17
2023-07-02T11:06:17.371Z,20.92
2023-07-02T11:12:59.953Z,17.38
2023-07-02T11:19:42.527Z,19.88
2023-07-02T11:26:35.383Z,20.17
2023-07-02T11:33:17.998Z,18.63
2023-07-02T11:40:00.629Z,15.50
2023-07-02T11:46:43.276Z,18.55
2023-07-02T11:53:26.298Z,19.15
2023-07-02T12:00:09.332Z,26.52
2023-07-02T12:06:52.885Z,19.10
2023-07-02T12:13:35.570Z,17.00
2023-07-02T12:20:18.340Z,22.70
2023-07-02T12:27:00.934Z,25.02
2023-07-02T12:33:43.559Z,18.05
2023-07-02T12:40:26.307Z,16.77
2023-07-02T12:47:09.796Z,18.15
2023-07-02T12:53:52.383Z,17.42
2023-07-02T13:00:35.626Z,31.27
2023-07-02T13:07:18.450Z,18.23
2023-07-02T13:14:01.163Z,32.67
2023-07-02T13:20:43.743Z,19.35
2023-07-02T13:27:27.177Z,16.33
2023-07-02T13:34:09.769Z,16.42
2023-07-02T13:40:52.360Z,18.73
2023-07-02T13:47:35.038Z,18.30
2023-07-02T13:54:19.620Z,19.52
2023-07-02T14:01:02.441Z,18.38
2023-07-02T14:07:45.690Z,16.63
2023-07-02T14:14:28.365Z,24.60
2023-07-02T14:21:10.962Z,22.48
2023-07-02T14:27:53.673Z,18.73
2023-07-02T14:34:36.483Z,14.65
2023-07-02T14:41:19.198Z,18.55
2023-07-02T14:48:01.931Z,15.38
2023-07-02T14:54:44.583Z,15.98
2023-07-02T15:01:27.266Z,16.48
2023-07-02T15:08:11.026Z,19.02
2023-07-02T15:14:53.617Z,16.05
2023-07-02T15:21:36.195Z,14.80
2023-07-02T15:28:19.542Z,15.43
2023-07-02T15:35:02.179Z,16.55
2023-07-02T15:41:44.742Z,18.38
2023-07-02T15:48:27.375Z,17.05
2023-07-02T15:55:09.996Z,18.67
2023-07-02T16:01:52.657Z,18.00
2023-07-02T16:08:35.673Z,16.50
2023-07-02T16:15:18.405Z,19.17
2023-07-02T16:22:01.652Z,17.42
2023-07-02T16:28:44.302Z,18.13
2023-07-02T16:35:26.911Z,17.77
2023-07-02T16:42:09.674Z,20.35
2023-07-02T16:48:52.426Z,17.00
2023-07-02T16:55:39.997Z,16.98
2023-07-02T17:02:22.765Z,20.60
2023-07-02T17:09:22.208Z,16.35
2023-07-02T17:16:05.995Z,20.52
2023-07-02T17:22:48.649Z,15.80
2023-07-02T17:29:32.545Z,20.75
2023-07-02T17:36:18.137Z,17.38
2023-07-02T17:43:00.896Z,18.80
2023-07-02T17:49:46.110Z,22.38
2023-07-02T17:56:29.240Z,20.27
2023-07-02T18:03:11.913Z,19.75
2023-07-02T18:09:54.903Z,16.67
2023-07-02T18:16:37.679Z,22.83
2023-07-02T18:23:21.005Z,22.08
2023-07-02T18:30:04.824Z,20.60
2023-07-02T18:36:50.029Z,22.13
2023-07-02T18:43:36.941Z,22.48
2023-07-02T18:50:19.551Z,20.38
2023-07-02T18:57:06.549Z,22.25
2023-07-02T19:03:49.324Z,22.50
2023-07-02T19:10:32.030Z,21.00
2023-07-02T19:17:16.298Z,20.52
2023-07-02T19:24:00.002Z,20.60
2023-07-02T19:30:42.654Z,25.33
2023-07-02T19:37:25.662Z,21.25
2023-07-02T19:44:08.731Z,20.33
2023-07-02T19:51:02.748Z,21.45
2023-07-02T19:57:45.496Z,20.15
2023-07-02T20:04:30.755Z,21.00
2023-07-02T20:11:13.480Z,22.20
2023-07-02T20:17:56.190Z,20.92
2023-07-02T20:24:38.781Z,18.05
2023-07-02T20:31:21.568Z,23.10
2023-07-02T20:38:04.698Z,24.50
2023-07-02T20:44:50.512Z,20.52
2023-07-02T20:51:34.508Z,23.08
2023-07-02T20:58:17.219Z,20.45
2023-07-02T21:04:59.788Z,20.65
2023-07-02T21:11:42.404Z,23.88
2023-07-02T21:18:26.000Z,23.48
2023-07-02T21:25:09.556Z,26.10
2023-07-02T21:31:52.395Z,20.52
2023-07-02T21:38:38.386Z,19.83
2023-07-02T21:45:21.396Z,18.83
2023-07-02T21:52:04.225Z,20.50
2023-07-02T21:58:49.315Z,22.42
2023-07-02T22:05:32.390Z,19.85
2023-07-02T22:12:14.986Z,20.95
2023-07-02T22:18:57.547Z,21.30
2023-07-02T22:25:43.448Z,21.95
2023-07-02T22:32:26.235Z,17.38
2023-07-02T22:39:08.902Z,20.65
2023-07-02T22:45:52.090Z,19.98
2023-07-02T22:52:36.175Z,22.67
2023-07-02T22:59:18.785Z,20.92
2023-07-02T23:06:01.709Z,19.25
2023-07-02T23:12:46.492Z,20.73
2023-07-02T23:19:30.148Z,18.00
2023-07-02T23:26:19.173Z,21.60
2023-07-02T23:33:06.895Z,21.23
2023-07-02T23:39:52.485Z,21.38
2023-07-02T23:46:35.732Z,21.55
2023-07-02T23:53:18.413Z,19.55
